createdAt,value
2023-02-24T00:00:34.301Z,22.10
2023-02-24T00:10:50.530Z,22.70
2023-02-24T00:20:56.820Z,18.50
2023-02-24T00:31:08.433Z,17.70
2023-02-24T00:41:17.654Z,20.20
2023-02-24T00:51:24.295Z,24.80
2023-02-24T01:01:33.610Z,23.40
2023-02-24T01:11:57.772Z,17.60
2023-02-24T01:22:04.876Z,20.00
2023-02-24T01:32:14.027Z,21.70
2023-02-24T01:42:22.160Z,20.30
2023-02-24T01:52:30.594Z,20.00
2023-02-24T02:02:33.981Z,20.40
2023-02-24T02:12:44.640Z,20.30
2023-02-24T02:23:19.452Z,16.40
2023-02-24T02:34:08.287Z,19.30
2023-02-24T02:54:32.478Z,15.60
2023-02-24T03:04:35.946Z,13.00
2023-02-24T03:14:51.221Z,10.90
2023-02-24T03:24:55.599Z,7.70
2023-02-24T03:35:17.117Z,7.80
2023-02-24T03:45:23.269Z,9.30
2023-02-24T03:55:35.412Z,9.00
2023-02-24T04:05:53.442Z,8.40
2023-02-24T04:26:08.037Z,6.60
2023-02-24T04:36:13.008Z,5.80
2023-02-24T04:46:20.100Z,5.90
2023-02-24T04:56:23.418Z,4.70
2023-02-24T05:06:26.489Z,5.50
2023-02-24T05:16:29.832Z,5.80
2023-02-24T05:26:37.137Z,6.80
2023-02-24T05:36:40.992Z,43.20
2023-02-24T05:46:47.002Z,29.00
2023-02-24T05:56:50.233Z,34.10
2023-02-24T06:06:53.902Z,16.60
2023-02-24T06:16:59.050Z,13.40
2023-02-24T06:27:09.940Z,11.40
2023-02-24T06:37:15.331Z,16.50
2023-02-24T06:47:18.855Z,16.60
2023-02-24T06:57:23.701Z,29.10
2023-02-24T07:07:26.813Z,12.70
2023-02-24T07:17:30.099Z,12.00
2023-02-24T07:27:34.226Z,14.50
2023-02-24T07:37:37.307Z,16.30
2023-02-24T07:47:44.202Z,16.00
2023-02-24T07:57:48.555Z,18.00
2023-02-24T08:07:53.431Z,17.20
2023-02-24T08:18:00.919Z,17.60
2023-02-24T08:28:11.777Z,16.70
2023-02-24T08:38:18.279Z,17.90
2023-02-24T08:48:32.549Z,21.30
2023-02-24T08:58:47.610Z,14.60
2023-02-24T09:09:21.490Z,13.80
2023-02-24T09:19:40.700Z,14.10
2023-02-24T09:42:47.604Z,16.10
2023-02-24T09:53:00.111Z,12.10
2023-02-24T10:03:41.697Z,13.20
2023-02-24T10:13:52.314Z,12.50
2023-02-24T10:24:14.678Z,12.30
2023-02-24T10:34:21.590Z,10.30
2023-02-24T10:45:02.582Z,10.60
2023-02-24T10:55:45.123Z,12.80
2023-02-24T13:02:00.167Z,14.00
2023-02-24T13:12:07.261Z,13.90
2023-02-24T13:22:12.753Z,10.70
2023-02-24T13:32:33.966Z,19.90
2023-02-24T13:42:37.321Z,11.30
2023-02-24T13:52:56.185Z,10.00
2023-02-24T14:03:00.484Z,9.40
2023-02-24T14:13:15.902Z,10.50
2023-02-24T14:23:32.413Z,10.30
2023-02-24T14:33:38.266Z,14.00
2023-02-24T14:43:42.319Z,11.00
2023-02-24T14:53:59.101Z,15.20
2023-02-24T15:04:32.201Z,8.80
2023-02-24T15:14:35.501Z,11.00
2023-02-24T15:24:39.017Z,13.50
2023-02-24T15:34:46.725Z,15.70
2023-02-24T15:44:55.431Z,12.60
2023-02-24T15:55:02.578Z,10.00
2023-02-24T16:05:06.482Z,10.70
2023-02-24T16:15:17.003Z,12.30
2023-02-24T16:25:20.051Z,10.80
2023-02-24T16:45:47.501Z,10.80
2023-02-24T16:55:52.137Z,15.80
2023-02-24T17:05:55.770Z,18.90
2023-02-24T17:15:59.134Z,17.20
2023-02-24T17:26:03.809Z,21.20
2023-02-24T17:36:07.122Z,23.70
2023-02-24T17:46:10.397Z,25.50
2023-02-24T17:56:14.842Z,31.20
2023-02-24T18:06:19.281Z,21.00
2023-02-24T18:16:22.949Z,24.60
2023-02-24T18:26:27.563Z,23.10
2023-02-24T18:36:31.869Z,24.80
2023-02-24T18:46:37.214Z,18.60
2023-02-24T18:56:40.408Z,15.70
2023-02-24T19:06:49.178Z,16.30
2023-02-24T19:16:52.500Z,16.20
2023-02-24T19:26:56.446Z,16.00
2023-02-24T19:36:59.592Z,16.90
2023-02-24T19:47:03.249Z,15.10
2023-02-24T19:57:10.002Z,15.70
2023-02-24T20:07:15.699Z,12.80
2023-02-24T20:17:19.392Z,16.50
2023-02-24T20:27:22.825Z,17.20
2023-02-24T20:37:26.430Z,14.00
2023-02-24T20:47:29.706Z,17.50
2023-02-24T20:57:32.956Z,20.10
2023-02-24T21:07:40.006Z,15.90
2023-02-24T21:17:43.259Z,12.10
2023-02-24T21:27:48.483Z,16.40
2023-02-24T21:37:51.721Z,13.90
2023-02-24T21:47:55.171Z,17.80
2023-02-24T21:57:58.529Z,14.70
2023-02-24T22:08:22.859Z,14.20
2023-02-24T22:18:27.095Z,13.20
2023-02-24T22:28:37.831Z,14.20
2023-02-24T22:38:48.041Z,12.50
2023-02-24T22:48:52.302Z,17.80
2023-02-24T22:58:56.239Z,17.00
2023-02-24T23:09:01.769Z,21.60
2023-02-24T23:19:11.715Z,18.40
2023-02-24T23:29:17.855Z,17.10
2023-02-24T23:39:24.112Z,17.30
2023-02-24T23:49:36.263Z,16.40
2023-02-24T23:59:53.215Z,15.80
